Time;durP1;ratioP1;P1;durP2;ratioP2;P2;SDS_P1;SDS_P2;PMS_P1;PMS_P2;Temp;Humidity;BMP_temperature;BMP_pressure;BME280_temperature;BME280_humidity;BME280_pressure;Samples;Min_cycle;Max_cycle;Signal;HPM_P1;HPM_P2
2024/02/06 00:01:02;;;;;;;10.00;5.05;;;10.40;91.00;;;;;;5074779;28;20036;-36
2024/02/06 00:03:28;;;;;;;8.18;4.57;;;10.40;91.00;;;;;;5074367;28;20507;-36
2024/02/06 00:05:53;;;;;;;8.98;5.07;;;10.40;91.00;;;;;;5074552;28;20380;-37
2024/02/06 00:08:19;;;;;;;9.63;5.07;;;10.40;91.00;;;;;;5074393;28;20029;-36
2024/02/06 00:10:45;;;;;;;7.05;5.20;;;10.40;91.00;;;;;;5074608;28;20035;-37
2024/02/06 00:13:10;;;;;;;7.40;5.20;;;10.40;90.90;;;;;;5072869;28;20028;-35
2024/02/06 00:15:36;;;;;;;8.73;5.32;;;10.40;90.90;;;;;;5074478;28;20021;-37
2024/02/06 00:18:01;;;;;;;9.35;6.05;;;10.30;90.90;;;;;;5074074;28;20465;-36
2024/02/06 00:20:27;;;;;;;10.98;5.20;;;10.30;91.00;;;;;;5074549;28;20053;-43
2024/02/06 00:22:53;;;;;;;8.32;5.40;;;10.30;91.00;;;;;;5074018;28;20032;-37
2024/02/06 00:25:18;;;;;;;7.95;5.15;;;10.40;91.00;;;;;;5073691;28;20049;-41
2024/02/06 00:27:44;;;;;;;9.27;5.97;;;10.30;91.00;;;;;;5074316;28;20099;-37
2024/02/06 00:30:10;;;;;;;12.25;6.10;;;10.40;91.00;;;;;;5073829;28;20025;-36
2024/02/06 00:32:36;;;;;;;6.00;5.40;;;10.30;90.90;;;;;;5074148;28;20025;-41
2024/02/06 00:35:01;;;;;;;15.90;6.18;;;10.30;91.00;;;;;;5073592;28;20068;-35
2024/02/06 00:37:30;;;;;;;9.45;5.40;;;10.30;91.00;;;;;;5073897;28;20055;-37
2024/02/06 00:39:56;;;;;;;8.10;5.82;;;10.30;91.00;;;;;;5074353;28;20469;-37
2024/02/06 00:42:21;;;;;;;9.15;5.65;;;10.30;91.00;;;;;;5073544;28;20025;-35
2024/02/06 00:44:47;;;;;;;9.45;6.05;;;10.30;91.00;;;;;;5073730;28;20024;-37
2024/02/06 00:47:14;;;;;;;8.55;5.85;;;10.30;91.00;;;;;;5073498;28;20031;-36
2024/02/06 00:49:40;;;;;;;8.82;5.43;;;10.30;91.00;;;;;;5073570;28;20082;-37
2024/02/06 00:52:06;;;;;;;11.40;6.53;;;10.30;91.00;;;;;;5073462;28;20032;-37
2024/02/06 00:54:31;;;;;;;11.43;6.85;;;10.30;91.00;;;;;;5073774;28;20103;-36
2024/02/06 00:56:57;;;;;;;11.80;7.80;;;10.30;91.00;;;;;;5073540;28;20115;-37
2024/02/06 00:59:22;;;;;;;8.32;5.55;;;10.30;91.00;;;;;;5073335;28;20032;-38
2024/02/06 01:01:48;;;;;;;12.45;7.00;;;10.30;91.00;;;;;;5073231;28;20032;-37
2024/02/06 01:04:14;;;;;;;8.60;6.50;;;10.30;91.00;;;;;;5073685;28;20023;-38
2024/02/06 01:06:40;;;;;;;11.07;6.40;;;10.30;91.00;;;;;;5073554;28;20028;-37
2024/02/06 01:09:05;;;;;;;8.98;6.90;;;10.30;91.10;;;;;;5073559;28;20380;-37
2024/02/06 01:11:31;;;;;;;12.13;7.25;;;10.30;91.10;;;;;;5073080;28;20108;-37
2024/02/06 01:13:56;;;;;;;13.52;7.20;;;10.30;91.00;;;;;;5073239;28;20021;-35
2024/02/06 01:16:22;;;;;;;10.93;6.95;;;10.30;91.00;;;;;;5072986;28;20409;-36
2024/02/06 01:18:47;;;;;;;10.30;7.13;;;10.30;91.00;;;;;;5073107;28;20423;-36
2024/02/06 01:21:13;;;;;;;10.00;7.03;;;10.30;91.00;;;;;;5072904;28;20064;-37
2024/02/06 01:23:38;;;;;;;15.60;7.68;;;10.40;91.00;;;;;;5072868;28;20078;-36
2024/02/06 01:26:04;;;;;;;12.88;6.55;;;10.30;91.00;;;;;;5072932;28;20078;-36
2024/02/06 01:28:30;;;;;;;8.07;6.22;;;10.30;91.00;;;;;;5072859;28;20048;-36
2024/02/06 01:30:56;;;;;;;9.80;6.60;;;10.40;91.00;;;;;;5072889;28;20056;-37
2024/02/06 01:33:21;;;;;;;10.35;6.30;;;10.40;91.00;;;;;;5072731;28;20016;-37
2024/02/06 01:35:47;;;;;;;10.88;6.38;;;10.40;91.00;;;;;;5072596;28;20432;-37
2024/02/06 01:38:12;;;;;;;9.88;6.53;;;10.40;91.00;;;;;;5072620;28;20054;-38
2024/02/06 01:40:41;;;;;;;13.13;6.20;;;10.40;91.00;;;;;;5072971;28;20056;-40
2024/02/06 01:43:06;;;;;;;10.23;6.63;;;10.40;91.30;;;;;;5072701;28;20029;-36
2024/02/06 01:45:32;;;;;;;14.82;7.47;;;10.40;91.00;;;;;;5072524;28;20431;-37
2024/02/06 01:47:58;;;;;;;14.32;7.22;;;10.40;91.00;;;;;;5072556;28;20099;-36
2024/02/06 01:50:24;;;;;;;15.30;7.10;;;10.40;90.90;;;;;;5072630;28;20020;-37
2024/02/06 01:52:51;;;;;;;13.20;6.72;;;10.40;90.90;;;;;;5072202;28;20038;-36
2024/02/06 01:55:18;;;;;;;14.27;6.40;;;10.40;90.90;;;;;;5072672;28;20380;-36
2024/02/06 01:57:44;;;;;;;11.93;6.85;;;10.40;91.00;;;;;;5072668;28;20021;-38
2024/02/06 02:00:10;;;;;;;12.57;6.15;;;10.40;90.90;;;;;;5072242;28;20074;-33
2024/02/06 02:02:37;;;;;;;9.48;5.50;;;10.40;90.90;;;;;;5072159;28;20013;-36
2024/02/06 02:05:06;;;;;;;8.45;5.82;;;10.40;90.90;;;;;;5072053;28;20362;-38
2024/02/06 02:07:32;;;;;;;14.02;5.57;;;10.40;90.90;;;;;;5072161;28;20032;-36
2024/02/06 02:09:59;;;;;;;12.70;5.47;;;10.40;90.90;;;;;;5072061;28;20380;-34
2024/02/06 02:12:24;;;;;;;10.30;5.57;;;10.40;90.90;;;;;;5071750;28;20488;-36
2024/02/06 02:14:50;;;;;;;10.57;6.00;;;10.50;91.00;;;;;;5071948;28;20059;-35
2024/02/06 02:17:15;;;;;;;11.75;5.53;;;10.50;91.20;;;;;;5071916;28;20032;-36
2024/02/06 02:19:41;;;;;;;13.43;7.35;;;10.50;90.90;;;;;;5071943;28;20032;-35
2024/02/06 02:22:06;;;;;;;11.60;6.30;;;10.50;90.80;;;;;;5071739;28;20389;-38
2024/02/06 02:24:32;;;;;;;13.15;5.72;;;10.40;90.80;;;;;;5072041;28;20104;-35
2024/02/06 02:26:58;;;;;;;9.98;5.45;;;10.40;90.70;;;;;;5071997;28;20078;-35
2024/02/06 02:29:25;;;;;;;9.32;4.90;;;10.40;90.80;;;;;;5071880;28;20028;-36
2024/02/06 02:31:52;;;;;;;11.55;5.47;;;10.40;90.80;;;;;;5071699;28;20054;-35
2024/02/06 02:34:20;;;;;;;15.50;5.97;;;10.40;90.80;;;;;;5070514;28;20086;-38
2024/02/06 02:36:45;;;;;;;12.48;5.63;;;10.40;90.70;;;;;;5072037;28;20025;-38
2024/02/06 02:39:11;;;;;;;9.48;5.10;;;10.40;90.70;;;;;;5072055;28;20099;-36
2024/02/06 02:41:37;;;;;;;12.07;5.28;;;10.40;90.70;;;;;;5071672;28;20388;-37
2024/02/06 02:44:03;;;;;;;12.38;4.53;;;10.40;90.70;;;;;;5070437;28;20040;-36
2024/02/06 02:46:29;;;;;;;11.52;4.80;;;10.40;90.70;;;;;;5071672;28;20095;-37
2024/02/06 02:48:54;;;;;;;9.27;4.55;;;10.40;90.70;;;;;;5070378;28;20074;-39
2024/02/06 02:51:20;;;;;;;10.73;4.13;;;10.40;90.60;;;;;;5071795;28;20429;-35
2024/02/06 02:53:45;;;;;;;10.50;4.45;;;10.40;90.70;;;;;;5071759;28;20358;-35
2024/02/06 02:56:12;;;;;;;13.98;4.32;;;10.50;90.70;;;;;;5071766;28;20020;-35
2024/02/06 02:58:38;;;;;;;13.60;4.50;;;10.50;90.70;;;;;;5071565;28;20484;-37
2024/02/06 03:01:04;;;;;;;16.38;5.32;;;10.50;90.70;;;;;;5071320;28;20035;-36
2024/02/06 03:03:29;;;;;;;17.85;5.18;;;10.50;90.60;;;;;;5071489;28;20095;-43
2024/02/06 03:05:55;;;;;;;10.23;4.18;;;10.50;90.60;;;;;;5071253;28;20024;-39
2024/02/06 03:08:20;;;;;;;12.50;4.80;;;10.50;90.50;;;;;;5071430;28;20017;-36
2024/02/06 03:10:46;;;;;;;11.30;4.13;;;10.50;90.50;;;;;;5071360;28;20023;-38
2024/02/06 03:13:11;;;;;;;11.70;4.28;;;10.50;90.50;;;;;;5071338;28;20090;-36
2024/02/06 03:15:37;;;;;;;13.88;4.40;;;10.50;90.40;;;;;;5071465;28;20103;-37
2024/02/06 03:18:03;;;;;;;11.85;4.68;;;10.50;90.50;;;;;;5071335;28;20020;-37
2024/02/06 03:20:28;;;;;;;18.55;5.68;;;10.50;90.50;;;;;;5071450;28;20385;-36
2024/02/06 03:22:54;;;;;;;12.20;4.13;;;10.50;90.50;;;;;;5073493;28;20031;-38
2024/02/06 03:25:20;;;;;;;13.48;4.40;;;10.50;90.50;;;;;;5075250;28;20099;-36
2024/02/06 03:27:46;;;;;;;11.70;4.28;;;10.50;90.50;;;;;;5075256;28;20033;-39
2024/02/06 03:30:12;;;;;;;13.23;4.75;;;10.60;90.50;;;;;;5075377;28;20042;-35
2024/02/06 03:32:37;;;;;;;16.52;4.82;;;10.60;90.50;;;;;;5074916;28;20025;-36
2024/02/06 03:35:04;;;;;;;11.40;4.43;;;10.60;90.50;;;;;;5074974;28;20049;-37
2024/02/06 03:37:29;;;;;;;13.55;4.78;;;10.60;90.50;;;;;;5073971;28;20073;-36
2024/02/06 03:39:55;;;;;;;15.05;4.50;;;10.60;90.50;;;;;;5075096;28;20037;-36
2024/02/06 03:42:20;;;;;;;12.20;5.28;;;10.60;90.50;;;;;;5075051;28;20028;-36
2024/02/06 03:44:46;;;;;;;14.73;4.65;;;10.60;90.50;;;;;;5074963;28;20032;-38
2024/02/06 03:47:12;;;;;;;9.75;4.10;;;10.60;90.50;;;;;;5074727;28;20465;-36
2024/02/06 03:49:37;;;;;;;11.35;4.20;;;10.60;90.50;;;;;;5074728;28;20124;-36
2024/02/06 03:52:03;;;;;;;10.75;3.95;;;10.60;90.60;;;;;;5074691;28;20512;-35
2024/02/06 03:54:29;;;;;;;16.98;4.60;;;10.60;90.60;;;;;;5074685;28;20027;-35
2024/02/06 03:56:54;;;;;;;10.95;4.70;;;10.60;90.60;;;;;;5073742;28;20012;-37
2024/02/06 03:59:20;;;;;;;11.48;4.78;;;10.60;90.70;;;;;;5074599;28;20025;-35
2024/02/06 04:01:45;;;;;;;9.15;4.40;;;10.60;90.70;;;;;;5074746;28;20021;-36
2024/02/06 04:04:11;;;;;;;11.93;5.50;;;10.50;90.80;;;;;;5074553;28;20021;-36
2024/02/06 04:06:36;;;;;;;14.60;5.50;;;10.60;90.90;;;;;;5074694;28;20029;-37
2024/02/06 04:09:03;;;;;;;15.32;6.60;;;10.50;90.90;;;;;;5074388;28;20539;-37
2024/02/06 04:11:29;;;;;;;11.00;6.00;;;10.50;90.90;;;;;;5074522;28;20057;-36
2024/02/06 04:13:54;;;;;;;14.65;6.10;;;10.50;91.00;;;;;;5073156;28;20464;-38
2024/02/06 04:16:20;;;;;;;9.52;4.72;;;10.50;91.10;;;;;;5074246;28;20036;-38
2024/02/06 04:18:46;;;;;;;11.85;5.68;;;10.50;91.10;;;;;;5074153;28;20046;-37
2024/02/06 04:21:11;;;;;;;10.05;5.68;;;10.50;91.10;;;;;;5074150;28;20126;-37
2024/02/06 04:23:37;;;;;;;11.52;5.57;;;10.50;91.10;;;;;;5074389;28;20029;-39
2024/02/06 04:26:05;;;;;;;8.63;5.38;;;10.50;91.20;;;;;;5074374;28;20047;-37
2024/02/06 04:28:31;;;;;;;13.75;5.88;;;10.50;91.10;;;;;;5074303;28;20031;-37
2024/02/06 04:30:57;;;;;;;11.07;6.20;;;10.50;91.20;;;;;;5073987;28;20056;-37
2024/02/06 04:33:22;;;;;;;11.65;6.15;;;10.50;91.20;;;;;;5073161;28;20024;-37
2024/02/06 04:35:48;;;;;;;12.77;6.68;;;10.50;91.20;;;;;;5073579;28;20037;-36
2024/02/06 04:38:14;;;;;;;9.35;5.57;;;10.40;91.20;;;;;;5074169;28;20100;-37
2024/02/06 04:40:39;;;;;;;12.98;5.75;;;10.40;91.30;;;;;;5074218;28;20393;-37
2024/02/06 04:43:05;;;;;;;12.90;5.40;;;10.40;91.30;;;;;;5073692;28;20024;-39
2024/02/06 04:45:31;;;;;;;11.70;5.82;;;10.40;91.60;;;;;;5073838;28;20549;-36
2024/02/06 04:47:57;;;;;;;13.65;5.65;;;10.40;91.40;;;;;;5073718;28;20028;-36
2024/02/06 04:50:23;;;;;;;18.45;6.22;;;10.40;91.50;;;;;;5073701;28;20031;-35
2024/02/06 04:52:49;;;;;;;13.27;6.63;;;10.40;91.50;;;;;;5073812;28;20024;-36
2024/02/06 04:55:14;;;;;;;14.90;7.50;;;10.30;91.50;;;;;;5073790;28;20045;-36
2024/02/06 04:57:40;;;;;;;9.60;5.90;;;10.30;91.60;;;;;;5073806;28;20358;-34
2024/02/06 05:00:12;;;;;;;12.82;6.22;;;10.30;91.90;;;;;;5073806;28;20051;-36
2024/02/06 05:02:38;;;;;;;16.73;5.45;;;10.30;91.70;;;;;;5073244;28;20173;-37
2024/02/06 05:05:05;;;;;;;13.13;5.30;;;10.30;91.70;;;;;;5073148;28;20032;-36
2024/02/06 05:07:31;;;;;;;10.95;5.88;;;10.30;91.70;;;;;;5073328;28;20075;-37
2024/02/06 05:09:57;;;;;;;13.25;5.93;;;10.30;91.80;;;;;;5073569;28;20039;-37
2024/02/06 05:12:24;;;;;;;12.98;5.75;;;10.30;91.80;;;;;;5073038;28;20469;-38
2024/02/06 05:14:50;;;;;;;15.90;6.47;;;10.30;91.80;;;;;;5073534;28;20027;-38
2024/02/06 05:17:15;;;;;;;11.98;5.22;;;10.30;91.90;;;;;;5073002;28;20020;-38
2024/02/06 05:19:41;;;;;;;12.80;5.32;;;10.30;91.90;;;;;;5072983;28;20020;-39
2024/02/06 05:22:08;;;;;;;13.25;6.22;;;10.30;91.90;;;;;;5073274;28;20036;-37
2024/02/06 05:24:34;;;;;;;13.52;5.47;;;10.30;92.00;;;;;;5073034;28;20032;-36
2024/02/06 05:27:00;;;;;;;12.45;5.60;;;10.30;92.00;;;;;;5073195;28;20028;-36
2024/02/06 05:29:26;;;;;;;12.65;5.63;;;10.30;92.10;;;;;;5072887;28;20365;-36
2024/02/06 05:31:51;;;;;;;9.32;5.00;;;10.30;92.10;;;;;;5072967;28;20024;-37
2024/02/06 05:34:17;;;;;;;12.13;5.70;;;10.30;92.20;;;;;;5072778;28;20131;-38
2024/02/06 05:36:43;;;;;;;13.30;6.05;;;10.30;92.20;;;;;;5072306;28;20017;-36
2024/02/06 05:39:09;;;;;;;14.23;5.68;;;10.30;92.10;;;;;;5072508;28;20039;-37
2024/02/06 05:41:34;;;;;;;11.15;6.10;;;10.30;92.10;;;;;;5071298;28;20040;-37
2024/02/06 05:44:00;;;;;;;13.18;6.30;;;10.30;92.10;;;;;;5072941;28;20091;-37
2024/02/06 05:46:25;;;;;;;11.30;5.82;;;10.40;92.20;;;;;;5072461;28;20439;-39
2024/02/06 05:48:51;;;;;;;11.95;6.25;;;10.40;92.10;;;;;;5072678;28;20032;-38
2024/02/06 05:51:16;;;;;;;9.27;5.22;;;10.40;92.10;;;;;;5071028;28;20037;-36
2024/02/06 05:53:42;;;;;;;13.55;6.38;;;10.40;92.10;;;;;;5072388;28;20083;-33
2024/02/06 05:56:08;;;;;;;14.20;6.47;;;10.40;92.10;;;;;;5072394;28;20020;-36
2024/02/06 05:58:33;;;;;;;16.25;6.85;;;10.40;92.20;;;;;;5072371;28;20024;-34
2024/02/06 06:00:59;;;;;;;13.35;6.32;;;10.40;92.20;;;;;;5072194;28;20421;-36
2024/02/06 06:03:25;;;;;;;13.70;6.25;;;10.30;92.20;;;;;;5072223;28;20488;-36
2024/02/06 06:05:51;;;;;;;15.77;7.40;;;10.30;92.30;;;;;;5072161;28;20158;-36
2024/02/06 06:08:16;;;;;;;10.48;6.03;;;10.30;92.30;;;;;;5072237;28;20024;-36
2024/02/06 06:10:42;;;;;;;8.98;6.13;;;10.30;92.40;;;;;;5072321;28;20029;-36
2024/02/06 06:13:07;;;;;;;13.55;7.72;;;10.30;92.40;;;;;;5072143;28;20039;-36
2024/02/06 06:15:33;;;;;;;14.90;6.68;;;10.30;92.50;;;;;;5071953;28;20151;-37
2024/02/06 06:17:58;;;;;;;13.02;6.68;;;10.20;92.50;;;;;;5071999;28;20385;-36
2024/02/06 06:20:24;;;;;;;14.25;6.55;;;10.20;92.60;;;;;;5072262;28;20025;-35
2024/02/06 06:22:50;;;;;;;12.98;6.93;;;10.20;92.60;;;;;;5072095;28;20027;-36
2024/02/06 06:25:15;;;;;;;14.57;7.13;;;10.20;92.70;;;;;;5071926;28;20029;-36
2024/02/06 06:27:42;;;;;;;11.00;6.43;;;10.20;92.70;;;;;;5072136;28;20118;-36
2024/02/06 06:30:09;;;;;;;12.55;6.38;;;10.20;92.70;;;;;;5071934;28;20111;-37
2024/02/06 06:32:34;;;;;;;13.93;6.55;;;10.20;92.80;;;;;;5071937;28;20047;-36
2024/02/06 06:35:03;;;;;;;13.43;7.43;;;10.20;92.80;;;;;;5071771;28;20107;-36
2024/02/06 06:37:29;;;;;;;13.15;7.70;;;10.20;92.80;;;;;;5071766;28;20021;-36
2024/02/06 06:39:54;;;;;;;13.77;7.18;;;10.20;92.90;;;;;;5071773;28;20103;-36
2024/02/06 06:42:20;;;;;;;13.98;7.28;;;10.20;92.90;;;;;;5071732;28;20027;-35
2024/02/06 06:44:45;;;;;;;11.38;7.28;;;10.20;93.00;;;;;;5071594;28;20428;-36
2024/02/06 06:47:11;;;;;;;15.82;7.15;;;10.20;93.10;;;;;;5071524;28;20059;-36
2024/02/06 06:49:37;;;;;;;16.73;6.90;;;10.10;93.00;;;;;;5071927;28;20028;-36
2024/02/06 06:52:05;;;;;;;13.80;7.40;;;10.20;93.10;;;;;;5071345;28;20040;-35
2024/02/06 06:54:31;;;;;;;15.25;6.82;;;10.10;93.10;;;;;;5071485;28;20025;-34
2024/02/06 06:56:57;;;;;;;12.45;6.53;;;10.10;93.20;;;;;;5073458;28;20017;-37
2024/02/06 06:59:23;;;;;;;13.95;6.20;;;10.20;93.20;;;;;;5078114;28;20020;-36
2024/02/06 07:01:48;;;;;;;12.57;6.72;;;10.20;93.20;;;;;;5077861;28;20166;-37
2024/02/06 07:04:14;;;;;;;12.75;6.53;;;10.20;93.20;;;;;;5078435;28;20518;-35
2024/02/06 07:06:39;;;;;;;11.52;5.43;;;10.20;93.20;;;;;;5078156;28;20024;-36
2024/02/06 07:09:06;;;;;;;16.00;6.70;;;10.20;93.20;;;;;;5078332;28;20109;-37
2024/02/06 07:11:31;;;;;;;15.88;5.95;;;10.20;93.20;;;;;;5078257;28;20043;-36
2024/02/06 07:13:58;;;;;;;13.20;5.70;;;10.20;93.20;;;;;;5078227;28;20104;-37
2024/02/06 07:16:24;;;;;;;8.50;5.28;;;10.20;93.10;;;;;;5078427;28;20426;-36
2024/02/06 07:18:49;;;;;;;16.15;6.05;;;10.20;93.20;;;;;;5078168;28;20020;-36
2024/02/06 07:21:15;;;;;;;13.77;5.95;;;10.20;93.20;;;;;;5078086;28;20033;-37
2024/02/06 07:23:41;;;;;;;11.98;5.68;;;10.30;93.20;;;;;;5078196;28;20103;-37
2024/02/06 07:26:11;;;;;;;11.50;5.30;;;10.30;93.20;;;;;;5077832;28;20069;-36
2024/02/06 07:28:38;;;;;;;13.13;5.05;;;10.30;93.20;;;;;;5078317;28;20058;-38
2024/02/06 07:31:04;;;;;;;13.38;5.32;;;10.30;93.20;;;;;;5077844;28;20099;-36
2024/02/06 07:33:31;;;;;;;14.40;5.22;;;10.30;93.20;;;;;;5078457;28;20507;-36
2024/02/06 07:35:57;;;;;;;11.02;4.63;;;10.40;93.20;;;;;;5077743;28;20123;-36
2024/02/06 07:38:23;;;;;;;14.57;4.93;;;10.30;93.20;;;;;;5077776;28;20035;-35
2024/02/06 07:40:48;;;;;;;17.67;5.65;;;10.30;93.20;;;;;;5077800;28;20024;-35
2024/02/06 07:43:14;;;;;;;12.10;5.13;;;10.30;93.20;;;;;;5078004;28;20067;-34
2024/02/06 07:45:39;;;;;;;13.00;4.47;;;10.30;93.20;;;;;;5077806;28;20031;-35
2024/02/06 07:48:07;;;;;;;13.90;5.45;;;10.30;93.20;;;;;;5077121;28;20071;-36
2024/02/06 07:50:33;;;;;;;13.52;5.30;;;10.30;93.30;;;;;;5075110;28;20139;-35
2024/02/06 07:52:59;;;;;;;9.40;4.88;;;10.30;93.30;;;;;;5076393;28;20100;-35
2024/02/06 07:55:24;;;;;;;13.57;5.38;;;10.30;93.30;;;;;;5076600;28;20075;-35
2024/02/06 07:57:50;;;;;;;15.52;5.95;;;10.30;93.40;;;;;;5076329;28;20021;-33
2024/02/06 08:00:16;;;;;;;12.90;5.30;;;10.30;93.30;;;;;;5076236;28;20078;-35
2024/02/06 08:02:42;;;;;;;12.35;5.00;;;10.30;93.30;;;;;;5076421;28;20035;-34
2024/02/06 08:05:08;;;;;;;12.27;5.50;;;10.30;93.40;;;;;;5076208;28;20025;-35
2024/02/06 08:07:34;;;;;;;9.82;5.25;;;10.30;93.40;;;;;;5076652;28;20084;-35
2024/02/06 08:09:59;;;;;;;12.95;5.55;;;10.30;93.40;;;;;;5073313;28;20065;-36
2024/02/06 08:12:27;;;;;;;12.57;6.30;;;10.30;93.40;;;;;;5073990;28;20028;-36
2024/02/06 08:14:52;;;;;;;14.52;6.07;;;10.30;93.40;;;;;;5074436;28;20028;-36
2024/02/06 08:17:21;;;;;;;14.57;5.82;;;10.30;93.40;;;;;;5074360;28;20024;-37
2024/02/06 08:19:46;;;;;;;10.75;5.57;;;10.30;93.50;;;;;;5074351;28;20389;-36
2024/02/06 08:22:12;;;;;;;11.38;5.40;;;10.30;93.50;;;;;;5074198;28;20021;-36
2024/02/06 08:24:37;;;;;;;11.05;5.03;;;10.30;93.40;;;;;;5074312;28;20035;-37
2024/02/06 08:27:04;;;;;;;10.45;5.15;;;10.30;93.50;;;;;;5074300;28;20032;-37
2024/02/06 08:29:30;;;;;;;11.60;5.60;;;10.30;93.50;;;;;;5074074;28;20028;-35
2024/02/06 08:31:56;;;;;;;8.15;4.82;;;10.30;93.50;;;;;;5074066;28;20511;-42
2024/02/06 08:34:22;;;;;;;14.15;5.65;;;10.30;93.50;;;;;;5074076;28;20039;-35
2024/02/06 08:36:47;;;;;;;11.10;5.10;;;10.30;93.50;;;;;;5073797;28;20020;-37
2024/02/06 08:39:13;;;;;;;10.35;4.93;;;10.40;93.50;;;;;;5073920;28;20021;-36
2024/02/06 08:41:39;;;;;;;15.77;5.93;;;10.30;93.50;;;;;;5073974;28;20052;-37
2024/02/06 08:44:08;;;;;;;12.57;5.43;;;10.30;93.50;;;;;;5073889;28;20338;-35
2024/02/06 08:46:34;;;;;;;10.35;4.75;;;10.40;93.50;;;;;;5073958;28;20382;-35
2024/02/06 08:48:59;;;;;;;13.02;5.80;;;10.30;93.50;;;;;;5073743;28;20108;-36
2024/02/06 08:51:25;;;;;;;11.52;4.80;;;10.40;93.50;;;;;;5073699;28;20116;-36
2024/02/06 08:53:51;;;;;;;10.15;5.22;;;10.40;93.60;;;;;;5073663;28;20316;-35
2024/02/06 08:56:16;;;;;;;8.77;4.82;;;10.40;93.60;;;;;;5073437;28;20024;-37
2024/02/06 08:58:42;;;;;;;13.15;5.32;;;10.30;93.60;;;;;;5073526;28;20032;-36
2024/02/06 09:01:08;;;;;;;9.73;5.05;;;10.40;93.60;;;;;;5073633;28;20052;-36
2024/02/06 09:03:33;;;;;;;11.55;4.80;;;10.40;93.60;;;;;;5072012;28;20029;-35
2024/02/06 09:05:59;;;;;;;13.57;5.25;;;10.40;93.60;;;;;;5073456;28;20059;-36
2024/02/06 09:08:25;;;;;;;15.02;5.07;;;10.50;93.60;;;;;;5073563;28;20029;-34
2024/02/06 09:10:50;;;;;;;11.50;4.72;;;10.50;93.60;;;;;;5073508;28;20025;-36
2024/02/06 09:13:16;;;;;;;16.17;5.00;;;10.50;93.60;;;;;;5073164;28;20031;-36
2024/02/06 09:15:41;;;;;;;12.23;5.35;;;10.50;93.60;;;;;;5073152;28;20029;-34
2024/02/06 09:18:07;;;;;;;17.13;4.75;;;10.60;93.60;;;;;;5072997;28;20082;-36
2024/02/06 09:20:32;;;;;;;10.20;4.55;;;10.60;93.50;;;;;;5072836;28;20424;-35
2024/02/06 09:22:58;;;;;;;13.10;4.38;;;10.60;93.50;;;;;;5071640;28;20032;-38
2024/02/06 09:25:24;;;;;;;16.73;4.32;;;10.60;93.50;;;;;;5073156;28;20082;-37
2024/02/06 09:27:49;;;;;;;12.48;4.85;;;10.60;93.50;;;;;;5073342;28;20020;-37
2024/02/06 09:30:17;;;;;;;10.90;4.20;;;10.60;93.50;;;;;;5072803;28;20033;-36
2024/02/06 09:32:43;;;;;;;17.58;4.40;;;10.60;93.50;;;;;;5072987;28;20468;-37
2024/02/06 09:35:10;;;;;;;11.18;4.20;;;10.60;93.50;;;;;;5072653;28;20044;-37
2024/02/06 09:37:36;;;;;;;12.13;3.92;;;10.70;93.50;;;;;;5072942;28;20397;-36
2024/02/06 09:40:02;;;;;;;15.55;4.38;;;10.70;93.50;;;;;;5072811;28;20039;-36
2024/02/06 09:42:28;;;;;;;12.20;4.03;;;10.70;93.40;;;;;;5072516;28;20028;-37
2024/02/06 09:44:54;;;;;;;14.23;4.20;;;10.80;93.40;;;;;;5072917;28;20150;-35
2024/02/06 09:47:21;;;;;;;14.48;3.45;;;10.80;93.30;;;;;;5072780;28;20484;-36
2024/02/06 09:49:46;;;;;;;15.32;3.85;;;10.80;93.30;;;;;;5054659;28;20052;-36
2024/02/06 09:52:14;;;;;;;10.98;3.30;;;10.90;93.20;;;;;;5072690;28;20113;-39
2024/02/06 09:54:45;;;;;;;11.90;3.63;;;11.00;93.20;;;;;;5071279;28;20044;-36
2024/02/06 09:57:12;;;;;;;13.13;3.22;;;11.00;92.90;;;;;;5072784;28;20028;-37
2024/02/06 09:59:39;;;;;;;8.80;2.78;;;11.10;92.90;;;;;;5072550;28;20464;-36
2024/02/06 10:02:05;;;;;;;9.40;2.90;;;11.10;92.70;;;;;;5072519;28;20347;-37
2024/02/06 10:04:34;;;;;;;11.77;3.45;;;11.20;92.70;;;;;;5072266;28;20055;-35
2024/02/06 10:07:02;;;;;;;16.92;4.07;;;11.20;92.50;;;;;;5072211;28;20393;-35
2024/02/06 10:09:31;;;;;;;13.32;3.15;;;11.30;92.20;;;;;;5072452;28;20032;-35
2024/02/06 10:11:58;;;;;;;14.30;2.97;;;11.30;92.30;;;;;;5071965;28;20036;-35
2024/02/06 10:14:25;;;;;;;8.32;2.78;;;11.40;92.20;;;;;;5072012;28;20017;-34
2024/02/06 10:16:51;;;;;;;7.00;2.45;;;11.40;92.20;;;;;;5072038;28;20029;-35
2024/02/06 10:19:16;;;;;;;10.25;2.70;;;11.50;92.10;;;;;;5072319;28;20350;-40
2024/02/06 10:21:42;;;;;;;11.38;2.78;;;11.50;92.10;;;;;;5071992;28;20480;-35
2024/02/06 10:24:08;;;;;;;7.40;2.72;;;11.50;92.00;;;;;;5072581;28;20032;-38
2024/02/06 10:26:34;;;;;;;12.23;3.47;;;11.50;91.90;;;;;;5072091;28;20441;-36
2024/02/06 10:29:07;;;;;;;8.75;3.25;;;11.60;92.00;;;;;;5072212;28;20347;-35
2024/02/06 10:31:33;;;;;;;10.88;3.38;;;11.60;91.90;;;;;;5071290;28;20028;-38
2024/02/06 10:34:18;;;;;;;12.45;4.20;;;11.60;91.90;;;;;;5071878;28;20350;-36
2024/02/06 10:36:44;;;;;;;15.35;4.28;;;11.60;91.80;;;;;;5071585;28;20582;-35
2024/02/06 10:39:10;;;;;;;12.30;3.85;;;11.60;91.90;;;;;;5071705;28;20016;-35
2024/02/06 10:41:36;;;;;;;7.45;3.63;;;11.70;91.90;;;;;;5072260;28;20064;-35
2024/02/06 10:44:13;;;;;;;11.57;4.00;;;11.70;91.90;;;;;;5071761;28;20027;-36
2024/02/06 10:46:43;;;;;;;11.98;3.80;;;11.70;91.90;;;;;;5072060;28;20354;-36
2024/02/06 10:49:09;;;;;;;11.23;4.13;;;11.80;91.90;;;;;;5071978;28;20020;-47
2024/02/06 10:51:34;;;;;;;15.43;3.83;;;11.90;91.80;;;;;;5071321;28;20509;-33
2024/02/06 10:54:00;;;;;;;13.20;3.65;;;11.90;91.70;;;;;;5072018;28;20070;-35
2024/02/06 10:56:27;;;;;;;13.65;4.20;;;11.90;91.70;;;;;;5071633;28;20017;-36
2024/02/06 10:59:01;;;;;;;13.60;3.70;;;11.90;91.60;;;;;;5071612;28;20048;-34
2024/02/06 11:01:37;;;;;;;15.43;4.28;;;12.00;91.40;;;;;;5071383;28;20044;-35
2024/02/06 11:04:08;;;;;;;12.02;3.58;;;11.90;91.30;;;;;;5070165;28;20040;-34
2024/02/06 11:06:45;;;;;;;11.45;3.25;;;12.00;91.20;;;;;;5071397;28;20020;-35
2024/02/06 11:09:14;;;;;;;11.65;3.10;;;12.10;91.10;;;;;;5071801;28;20024;-36
2024/02/06 11:11:40;;;;;;;14.32;3.38;;;12.10;90.80;;;;;;5071495;28;20534;-36
2024/02/06 11:14:08;;;;;;;13.13;3.13;;;12.10;90.70;;;;;;5071682;28;20040;-35
2024/02/06 11:16:39;;;;;;;11.18;3.67;;;12.20;90.80;;;;;;5071428;28;20025;-35
2024/02/06 11:19:20;;;;;;;9.93;3.20;;;12.20;90.60;;;;;;5071536;28;20539;-34
2024/02/06 11:22:00;;;;;;;18.73;3.00;;;12.20;90.60;;;;;;5071498;28;20116;-35
2024/02/06 11:24:28;;;;;;;9.02;2.95;;;12.20;90.60;;;;;;5071178;28;20098;-35
2024/02/06 11:26:54;;;;;;;8.77;2.80;;;12.30;90.50;;;;;;5071433;28;20035;-34
2024/02/06 11:29:20;;;;;;;10.73;3.05;;;12.30;90.60;;;;;;5070488;28;20392;-36
2024/02/06 11:31:46;;;;;;;16.13;2.92;;;12.30;90.60;;;;;;5071379;28;20032;-35
2024/02/06 11:34:13;;;;;;;12.30;4.05;;;12.30;90.60;;;;;;5071242;28;20041;-35
2024/02/06 11:36:40;;;;;;;11.18;3.75;;;12.30;90.50;;;;;;5069895;28;20027;-34
2024/02/06 11:39:12;;;;;;;11.88;4.22;;;12.20;90.60;;;;;;5071097;28;20033;-35
2024/02/06 11:41:39;;;;;;;9.65;3.10;;;12.20;90.80;;;;;;5070854;28;20029;-35
2024/02/06 11:44:23;;;;;;;10.82;2.85;;;12.20;90.40;;;;;;5073897;28;20024;-35
2024/02/06 11:46:50;;;;;;;9.05;3.15;;;12.20;90.40;;;;;;5074503;28;20024;-38
2024/02/06 11:49:23;;;;;;;11.48;3.10;;;12.20;90.40;;;;;;5075040;28;20028;-36
2024/02/06 11:51:55;;;;;;;9.70;2.70;;;12.20;90.50;;;;;;5074889;28;20032;-36
2024/02/06 11:54:27;;;;;;;11.40;3.47;;;12.20;90.40;;;;;;5074863;28;20054;-35
2024/02/06 11:56:53;;;;;;;11.25;3.03;;;12.10;90.40;;;;;;5074815;28;20016;-35
2024/02/06 11:59:19;;;;;;;9.27;2.90;;;12.10;90.30;;;;;;5074687;28;20051;-36
2024/02/06 12:01:44;;;;;;;9.85;2.70;;;12.10;90.30;;;;;;5074452;28;20041;-36
2024/02/06 12:04:10;;;;;;;11.40;2.70;;;12.20;90.40;;;;;;5074553;28;20024;-52
2024/02/06 12:06:36;;;;;;;8.85;2.85;;;12.10;90.20;;;;;;5074647;28;20086;-36
2024/02/06 12:09:10;;;;;;;6.25;2.60;;;12.10;90.20;;;;;;5074857;28;20020;-38
2024/02/06 12:11:45;;;;;;;9.18;2.60;;;12.20;89.70;;;;;;5074431;28;20378;-38
2024/02/06 12:14:12;;;;;;;7.35;2.38;;;12.10;89.40;;;;;;5074753;28;20016;-35
2024/02/06 12:16:39;;;;;;;7.07;2.30;;;12.20;89.40;;;;;;5072990;28;20025;-35
2024/02/06 12:19:06;;;;;;;7.55;2.30;;;12.10;89.20;;;;;;5074567;28;20484;-36
2024/02/06 12:21:32;;;;;;;9.65;2.60;;;12.20;89.00;;;;;;5074502;28;20468;-36
2024/02/06 12:24:04;;;;;;;5.97;2.10;;;12.20;89.30;;;;;;5074438;28;20064;-36
2024/02/06 12:26:33;;;;;;;7.30;2.13;;;12.20;89.20;;;;;;5074385;28;20053;-36
2024/02/06 12:29:03;;;;;;;8.20;2.50;;;12.20;89.40;;;;;;5074149;28;20085;-36
2024/02/06 12:31:33;;;;;;;12.00;2.60;;;12.30;89.00;;;;;;5073915;28;20039;-37
2024/02/06 12:34:00;;;;;;;8.80;2.65;;;12.30;88.80;;;;;;5074111;28;20488;-37